Time;durP1;ratioP1;P1;durP2;ratioP2;P2;SDS_P1;SDS_P2;PMS_P1;PMS_P2;Temp;Humidity;BMP_temperature;BMP_pressure;BME280_temperature;BME280_humidity;BME280_pressure;Samples;Min_cycle;Max_cycle;Signal;HPM_P1;HPM_P2
2021/09/17 00:02:47;;;;;;;49.38;37.73;;;;;;;17.37;91.46;98467.64;2300193;76;20987;-83
2021/09/17 00:05:47;;;;;;;49.48;38.20;;;;;;;17.31;91.87;98467.74;2319079;76;20971;-83
2021/09/17 00:08:48;;;;;;;51.98;36.45;;;;;;;17.26;92.04;98463.88;2318969;75;20971;-82
2021/09/17 00:11:48;;;;;;;53.55;36.00;;;;;;;17.21;92.23;98464.42;2323890;75;20944;-82
2021/09/17 00:14:49;;;;;;;45.30;35.58;;;;;;;17.19;92.18;98467.55;2322631;76;20958;-81
2021/09/17 00:17:49;;;;;;;47.95;35.52;;;;;;;17.17;92.40;98468.90;2319098;76;20924;-82
2021/09/17 00:20:50;;;;;;;42.83;33.58;;;;;;;17.13;92.75;98457.99;2303698;77;21014;-82
2021/09/17 00:23:51;;;;;;;43.80;35.98;;;;;;;17.12;92.62;98464.17;2369782;74;20934;-82
2021/09/17 00:26:51;;;;;;;43.33;34.55;;;;;;;17.07;93.53;98466.03;2370077;75;21332;-82
2021/09/17 00:29:52;;;;;;;49.73;35.88;;;;;;;17.04;93.22;98459.50;2306160;77;20950;-83
2021/09/17 00:32:52;;;;;;;48.65;35.08;;;;;;;17.03;93.63;98461.72;2332535;75;21025;-80
2021/09/17 00:35:53;;;;;;;47.10;35.90;;;;;;;16.99;93.35;98462.68;2373592;74;20999;-80
2021/09/17 00:38:53;;;;;;;44.70;36.42;;;;;;;16.98;93.69;98462.26;2324781;75;20929;-81
2021/09/17 00:41:54;;;;;;;48.75;36.28;;;;;;;16.95;93.81;98464.95;2368336;74;20971;-80
2021/09/17 00:44:54;;;;;;;49.03;35.48;;;;;;;16.93;93.97;98461.48;2360699;75;20950;-83
2021/09/17 00:47:55;;;;;;;45.70;36.80;;;;;;;16.92;93.60;98461.52;2377947;75;20897;-81
2021/09/17 00:50:55;;;;;;;50.73;36.23;;;;;;;16.87;94.17;98469.52;2314613;75;20932;-81
2021/09/17 00:53:56;;;;;;;49.05;35.17;;;;;;;16.82;94.19;98465.64;2308084;75;20982;-79
2021/09/17 00:56:58;;;;;;;46.53;36.30;;;;;;;16.80;93.77;98466.58;2309679;75;20924;-81
2021/09/17 00:59:58;;;;;;;46.33;35.08;;;;;;;16.77;94.10;98462.68;2306578;77;21034;-81
2021/09/17 01:02:59;;;;;;;47.78;37.50;;;;;;;16.75;93.91;98456.56;2323287;76;20959;-82
2021/09/17 01:06:00;;;;;;;44.70;34.73;;;;;;;16.75;94.12;98449.98;2312527;75;21363;-80
2021/09/17 01:09:00;;;;;;;44.30;34.88;;;;;;;16.74;94.26;98442.97;2279810;76;20968;-82
2021/09/17 01:12:03;;;;;;;46.48;35.73;;;;;;;16.72;93.89;98448.27;2316869;75;21339;-81
2021/09/17 01:15:04;;;;;;;43.75;35.52;;;;;;;16.72;94.29;98443.45;2317926;76;21102;-82
2021/09/17 01:18:05;;;;;;;45.98;36.15;;;;;;;16.70;94.15;98443.92;2281550;76;20926;-81
2021/09/17 01:21:05;;;;;;;41.75;31.73;;;;;;;16.67;94.20;98439.58;2322218;76;20995;-81
2021/09/17 01:24:06;;;;;;;43.35;35.38;;;;;;;16.67;94.07;98438.72;2281042;76;21317;-81
2021/09/17 01:27:07;;;;;;;45.12;34.27;;;;;;;16.66;94.81;98433.03;2320166;76;21889;-82
2021/09/17 01:30:08;;;;;;;43.85;34.60;;;;;;;16.63;94.21;98434.37;2304911;76;20955;-80
2021/09/17 01:33:08;;;;;;;43.48;36.00;;;;;;;16.60;94.33;98433.98;2306827;76;20952;-82
2021/09/17 01:36:09;;;;;;;46.73;35.13;;;;;;;16.56;94.38;98425.27;2323067;75;20990;-81
2021/09/17 01:39:10;;;;;;;44.53;34.15;;;;;;;16.55;94.47;98433.19;2282984;76;20904;-82
2021/09/17 01:42:10;;;;;;;41.40;33.28;;;;;;;16.54;94.28;98427.05;2371060;74;20938;-81
2021/09/17 01:45:11;;;;;;;42.65;32.42;;;;;;;16.54;94.25;98427.50;2287728;76;20911;-81
2021/09/17 01:48:12;;;;;;;39.23;31.85;;;;;;;16.52;93.95;98431.48;2327222;75;20943;-81
2021/09/17 01:51:12;;;;;;;37.63;31.10;;;;;;;16.49;93.90;98431.98;2320340;75;21357;-83
2021/09/17 01:54:13;;;;;;;37.28;30.82;;;;;;;16.47;94.06;98425.84;2319784;77;20975;-82
2021/09/17 01:57:14;;;;;;;40.03;30.45;;;;;;;16.44;93.82;98424.14;2312859;75;20975;-82
2021/09/17 02:00:14;;;;;;;40.38;28.77;;;;;;;16.43;94.01;98425.48;2309962;75;21304;-83
2021/09/17 02:03:15;;;;;;;33.88;28.15;;;;;;;16.39;93.71;98416.77;2312806;75;20912;-81
2021/09/17 02:06:15;;;;;;;34.55;26.93;;;;;;;16.39;93.78;98415.45;2310668;77;21021;-81
2021/09/17 02:09:16;;;;;;;36.28;26.90;;;;;;;16.36;93.46;98419.45;2310220;75;20967;-82
2021/09/17 02:12:17;;;;;;;35.78;25.20;;;;;;;16.35;93.28;98416.85;2299169;76;21330;-82
2021/09/17 02:15:17;;;;;;;25.82;23.00;;;;;;;16.31;92.98;98413.85;2301254;76;20984;-81
2021/09/17 02:18:18;;;;;;;25.97;23.05;;;;;;;16.28;92.74;98420.05;2299459;76;20983;-81
2021/09/17 02:21:21;;;;;;;27.60;22.73;;;;;;;16.23;92.94;98421.44;2368326;75;20944;-77
2021/09/17 02:24:21;;;;;;;27.50;22.05;;;;;;;16.22;92.67;98421.47;2366540;75;21326;-77
2021/09/17 02:27:21;;;;;;;22.77;20.30;;;;;;;16.18;92.37;98416.70;2365146;75;20932;-83
2021/09/17 02:30:22;;;;;;;23.00;20.17;;;;;;;16.16;92.08;98413.67;2372211;75;21387;-82
2021/09/17 02:33:22;;;;;;;29.07;20.23;;;;;;;16.11;92.14;98411.57;2371418;75;20912;-81
2021/09/17 02:36:23;;;;;;;27.30;19.85;;;;;;;16.05;91.96;98406.41;2343654;75;20983;-81
2021/09/17 02:39:24;;;;;;;26.35;18.87;;;;;;;15.99;91.86;98400.80;2376993;74;21373;-83
2021/09/17 02:42:24;;;;;;;26.00;19.02;;;;;;;15.96;92.08;98402.61;2287225;77;20955;-83
2021/09/17 02:45:25;;;;;;;21.37;18.35;;;;;;;15.89;91.93;98404.03;2324648;75;20965;-82
2021/09/17 02:48:25;;;;;;;22.42;16.97;;;;;;;15.85;91.98;98402.34;2321252;76;20954;-80
2021/09/17 02:51:26;;;;;;;19.32;15.85;;;;;;;15.82;91.80;98406.34;2369696;75;21403;-81
2021/09/17 02:54:27;;;;;;;21.82;15.25;;;;;;;15.77;91.38;98402.92;2324645;75;20940;-82
2021/09/17 02:57:27;;;;;;;16.30;14.43;;;;;;;15.73;90.74;98399.05;2365052;74;20958;-82
2021/09/17 03:00:28;;;;;;;15.95;14.07;;;;;;;15.67;90.61;98405.72;2366817;75;20965;-81
2021/09/17 03:03:28;;;;;;;18.90;15.30;;;;;;;15.63;90.59;98397.00;2370386;75;21374;-82
2021/09/17 03:06:29;;;;;;;18.82;15.23;;;;;;;15.59;90.92;98397.91;2295151;77;21026;-81
2021/09/17 03:09:29;;;;;;;16.73;15.10;;;;;;;15.54;91.02;98393.13;2334913;75;20958;-78
2021/09/17 03:12:30;;;;;;;17.60;15.85;;;;;;;15.47;91.26;98400.69;2319525;76;20971;-82
2021/09/17 03:15:31;;;;;;;20.80;17.17;;;;;;;15.42;91.62;98396.81;2313135;75;20963;-82
2021/09/17 03:18:31;;;;;;;25.90;17.40;;;;;;;15.37;92.26;98391.20;2292879;77;21403;-82
2021/09/17 03:21:32;;;;;;;23.00;17.80;;;;;;;15.33;92.22;98394.31;2290587;77;20941;-82
2021/09/17 03:24:32;;;;;;;22.67;17.92;;;;;;;15.29;92.39;98398.75;2295697;77;20979;-81
2021/09/17 03:27:33;;;;;;;20.12;17.25;;;;;;;15.25;93.04;98393.55;2290983;77;21626;-83
2021/09/17 03:30:33;;;;;;;18.77;16.20;;;;;;;15.23;93.02;98390.95;2314800;77;20990;-82
2021/09/17 03:33:34;;;;;;;15.85;14.35;;;;;;;15.22;92.30;98388.34;2286421;77;20986;-82
2021/09/17 03:36:42;;;;;;;22.77;14.85;;;;;;;15.18;91.56;98394.09;2319543;76;20993;-81
2021/09/17 03:39:37;;;;;;;15.53;12.85;;;;;;;15.13;91.00;98393.73;2323817;75;21020;-82
2021/09/17 03:42:37;;;;;;;18.62;14.65;;;;;;;15.10;91.31;98401.66;2325654;75;20969;-81
2021/09/17 03:45:38;;;;;;;18.15;15.83;;;;;;;15.05;91.33;98396.45;2369998;75;20950;-81
2021/09/17 03:48:39;;;;;;;21.40;16.52;;;;;;;15.05;92.02;98395.14;2361825;75;20950;-81
2021/09/17 03:51:39;;;;;;;19.92;16.25;;;;;;;15.01;92.29;98394.76;2288399;76;21164;-81
2021/09/17 03:54:40;;;;;;;20.10;17.67;;;;;;;14.96;92.28;98397.89;2321518;74;20904;-80
2021/09/17 03:57:40;;;;;;;18.75;16.55;;;;;;;14.89;92.85;98399.73;2322808;75;20951;-83
2021/09/17 04:00:41;;;;;;;18.80;16.45;;;;;;;14.84;93.21;98396.73;2316008;76;21414;-82
2021/09/17 04:03:41;;;;;;;18.15;16.17;;;;;;;14.79;92.85;98404.67;2279714;77;20990;-81
2021/09/17 04:06:43;;;;;;;21.73;16.60;;;;;;;14.74;93.02;98400.33;2327862;75;21033;-81
2021/09/17 04:09:43;;;;;;;18.85;15.80;;;;;;;14.71;93.52;98408.24;2323676;76;21002;-82
2021/09/17 04:12:44;;;;;;;20.92;15.43;;;;;;;14.68;93.36;98406.97;2321990;75;21501;-83
2021/09/17 04:15:44;;;;;;;21.40;16.50;;;;;;;14.63;93.23;98410.95;2288000;77;20955;-81
2021/09/17 04:18:45;;;;;;;17.95;16.00;;;;;;;14.58;93.46;98410.14;2375393;74;21037;-82
2021/09/17 04:21:45;;;;;;;20.20;16.73;;;;;;;14.53;93.45;98410.19;2368448;75;20967;-82
2021/09/17 04:24:46;;;;;;;19.23;15.15;;;;;;;14.50;93.87;98410.22;2334356;74;20935;-82
2021/09/17 04:27:47;;;;;;;16.15;14.47;;;;;;;14.44;93.75;98403.72;2312586;77;20956;-82
2021/09/17 04:30:47;;;;;;;17.25;14.80;;;;;;;14.39;93.25;98409.44;2308378;76;21011;-82
2021/09/17 04:33:48;;;;;;;17.57;15.78;;;;;;;14.34;93.33;98413.86;2300995;76;20966;-82
2021/09/17 04:36:48;;;;;;;17.75;16.15;;;;;;;14.27;94.09;98417.43;2369798;74;20950;-81
2021/09/17 04:39:49;;;;;;;19.57;16.60;;;;;;;14.21;94.53;98426.23;2316318;74;20947;-82
2021/09/17 04:42:49;;;;;;;17.75;15.98;;;;;;;14.17;94.33;98427.59;2310551;76;21103;-82
2021/09/17 04:45:50;;;;;;;18.80;16.45;;;;;;;14.11;94.41;98421.95;2313601;76;20975;-82
2021/09/17 04:48:50;;;;;;;20.40;16.35;;;;;;;14.12;94.94;98424.14;2287302;76;20955;-82
2021/09/17 04:51:51;;;;;;;17.45;15.45;;;;;;;14.11;94.69;98432.89;2304872;76;20987;-82
2021/09/17 04:54:52;;;;;;;20.30;16.27;;;;;;;14.06;94.49;98427.69;2294375;77;20911;-83
2021/09/17 04:57:52;;;;;;;15.23;13.72;;;;;;;14.02;94.54;98428.16;2319266;75;21308;-82
2021/09/17 05:00:53;;;;;;;14.30;11.30;;;;;;;13.98;94.54;98433.44;2292161;77;20923;-82
2021/09/17 05:03:54;;;;;;;12.98;11.63;;;;;;;13.92;94.56;98430.43;2281297;77;20987;-82
2021/09/17 05:06:54;;;;;;;13.18;10.85;;;;;;;13.88;94.26;98431.34;2321923;75;20982;-83
2021/09/17 05:09:55;;;;;;;11.40;10.03;;;;;;;13.82;94.05;98426.10;2321411;75;21363;-82
2021/09/17 05:12:55;;;;;;;12.07;8.98;;;;;;;13.79;94.10;98434.44;2321588;76;20927;-84
2021/09/17 05:15:56;;;;;;;12.37;9.95;;;;;;;13.76;94.01;98432.70;2363790;75;20933;-80
2021/09/17 05:18:57;;;;;;;11.65;9.65;;;;;;;13.73;94.41;98423.99;2371113;75;21342;-81
2021/09/17 05:21:57;;;;;;;11.63;9.90;;;;;;;13.69;94.11;98422.70;2359729;75;21031;-81
2021/09/17 05:24:58;;;;;;;17.60;10.48;;;;;;;13.67;94.35;98422.28;2372874;75;21257;-81
2021/09/17 05:27:58;;;;;;;11.93;10.63;;;;;;;13.65;94.58;98424.05;2337882;75;20943;-81
2021/09/17 05:30:59;;;;;;;14.03;10.03;;;;;;;13.59;94.96;98428.02;2292847;77;20961;-81
2021/09/17 05:33:59;;;;;;;14.30;10.03;;;;;;;13.57;95.30;98425.41;2293010;77;21326;-81
2021/09/17 05:37:00;;;;;;;16.37;11.65;;;;;;;13.55;95.58;98427.61;2318776;75;21031;-81
2021/09/17 05:40:01;;;;;;;13.55;11.93;;;;;;;13.51;95.80;98427.20;2274521;77;21323;-80
2021/09/17 05:43:01;;;;;;;14.78;13.35;;;;;;;13.47;95.92;98427.66;2307072;76;20991;-81
2021/09/17 05:46:02;;;;;;;17.05;13.58;;;;;;;13.48;96.13;98428.53;2304625;76;20955;-80
2021/09/17 05:49:02;;;;;;;15.80;13.95;;;;;;;13.53;96.34;98428.06;2377437;74;21301;-80
2021/09/17 05:52:03;;;;;;;17.15;13.48;;;;;;;13.54;96.28;98424.56;2361668;75;20974;-80
2021/09/17 05:55:03;;;;;;;16.85;13.53;;;;;;;13.57;96.30;98425.85;2267603;77;20977;-80
2021/09/17 05:58:04;;;;;;;14.73;13.18;;;;;;;13.59;95.98;98424.09;2323859;75;21379;-80
2021/09/17 06:01:04;;;;;;;15.65;12.15;;;;;;;13.61;95.98;98422.33;2318702;77;21083;-79
2021/09/17 06:04:05;;;;;;;20.50;12.53;;;;;;;13.63;96.01;98421.88;2322966;75;20900;-81
2021/09/17 06:07:06;;;;;;;13.55;12.13;;;;;;;13.63;95.89;98417.50;2313845;76;21027;-81
2021/09/17 06:10:07;;;;;;;16.12;13.00;;;;;;;13.63;95.90;98424.06;2313672;76;20972;-80
2021/09/17 06:13:07;;;;;;;20.72;12.75;;;;;;;13.65;95.77;98423.61;2314566;75;20924;-81
2021/09/17 06:16:08;;;;;;;14.03;11.48;;;;;;;13.68;95.82;98416.16;2313531;76;21376;-82
2021/09/17 06:19:08;;;;;;;11.83;10.63;;;;;;;13.69;95.29;98416.14;2285238;76;20974;-82
2021/09/17 06:22:09;;;;;;;13.38;11.08;;;;;;;13.70;95.11;98417.02;2375534;75;20940;-82
2021/09/17 06:25:09;;;;;;;11.43;10.23;;;;;;;13.69;95.09;98417.45;2285160;76;20951;-82
2021/09/17 06:28:10;;;;;;;11.63;9.10;;;;;;;13.71;95.12;98409.58;2329694;75;20953;-82
2021/09/17 06:31:12;;;;;;;10.20;8.15;;;;;;;13.70;94.70;98413.08;2338306;75;20958;-81
2021/09/17 06:34:13;;;;;;;12.03;8.43;;;;;;;13.69;94.43;98420.52;2300081;76;20983;-81
2021/09/17 06:37:13;;;;;;;9.55;8.55;;;;;;;13.67;94.44;98413.98;2308980;76;21466;-81
2021/09/17 06:40:14;;;;;;;16.05;9.30;;;;;;;13.66;94.32;98417.92;2314501;75;20963;-81
2021/09/17 06:43:14;;;;;;;9.30;8.28;;;;;;;13.66;94.29;98413.98;2279178;76;20911;-82
2021/09/17 06:46:15;;;;;;;11.70;8.55;;;;;;;13.68;94.30;98410.47;2316454;76;21333;-82
2021/09/17 06:49:16;;;;;;;9.78;8.03;;;;;;;13.72;94.50;98408.70;2315442;76;21011;-82
2021/09/17 06:52:16;;;;;;;8.55;7.65;;;;;;;13.75;93.84;98407.36;2313497;76;20952;-82
2021/09/17 06:55:17;;;;;;;9.13;7.08;;;;;;;13.77;94.08;98409.53;2315876;76;20990;-81
2021/09/17 06:58:17;;;;;;;9.55;7.17;;;;;;;13.79;94.08;98407.77;2315556;76;20964;-82
2021/09/17 07:01:19;;;;;;;8.28;7.47;;;;;;;13.87;93.94;98407.70;2314995;76;20975;-81
2021/09/17 07:04:19;;;;;;;8.53;7.67;;;;;;;13.92;93.73;98405.50;2313897;75;21008;-81
2021/09/17 07:07:20;;;;;;;8.18;7.35;;;;;;;13.96;93.07;98407.22;2313613;76;21371;-83
2021/09/17 07:10:20;;;;;;;8.13;7.40;;;;;;;13.98;93.10;98403.27;2315956;75;20984;-83
2021/09/17 07:13:24;;;;;;;9.10;8.20;;;;;;;14.04;93.29;98401.90;2313963;76;20952;-82
2021/09/17 07:16:24;;;;;;;10.85;8.25;;;;;;;14.05;93.34;98402.77;2315137;75;21031;-83
2021/09/17 07:19:26;;;;;;;9.15;8.35;;;;;;;14.04;93.28;98401.90;2314848;76;21344;-81
2021/09/17 07:22:27;;;;;;;7.70;7.00;;;;;;;14.08;92.95;98405.36;2314519;75;20967;-81
2021/09/17 07:25:27;;;;;;;9.70;7.28;;;;;;;14.10;92.67;98400.97;2313339;75;20960;-82
2021/09/17 07:28:32;;;;;;;8.68;6.80;;;;;;;14.15;92.64;98403.11;2314486;76;20928;-80
2021/09/17 07:31:30;;;;;;;7.42;6.72;;;;;;;14.21;92.43;98393.42;2313161;76;20956;-82
2021/09/17 07:34:31;;;;;;;7.78;6.37;;;;;;;14.23;91.95;98399.97;2314678;76;20928;-81
2021/09/17 07:37:38;;;;;;;8.75;6.05;;;;;;;14.23;91.95;98402.16;2314000;76;20975;-82
2021/09/17 07:40:39;;;;;;;5.85;5.35;;;;;;;14.25;92.03;98411.33;2315096;76;21033;-82
2021/09/17 07:43:39;;;;;;;5.42;4.20;;;;;;;14.25;91.23;98413.95;2314423;77;20951;-82
2021/09/17 07:46:40;;;;;;;4.90;4.40;;;;;;;14.22;90.77;98413.53;2315757;76;21300;-82
2021/09/17 07:49:40;;;;;;;6.12;4.10;;;;;;;14.18;90.87;98414.89;2313636;76;20968;-83
2021/09/17 07:52:41;;;;;;;4.20;3.90;;;;;;;14.15;90.39;98413.61;2312499;76;21029;-82
2021/09/17 07:55:41;;;;;;;4.60;3.42;;;;;;;14.13;90.75;98413.63;2308524;76;20908;-82
2021/09/17 07:58:42;;;;;;;3.55;3.25;;;;;;;14.12;90.57;98414.51;2315109;76;21384;-82
2021/09/17 08:01:42;;;;;;;6.55;3.33;;;;;;;14.06;89.81;98422.44;2312348;76;20936;-83
2021/09/17 08:04:43;;;;;;;2.42;2.22;;;;;;;14.02;90.01;98420.73;2314044;76;20967;-82
2021/09/17 08:07:43;;;;;;;2.72;2.52;;;;;;;13.98;89.59;98417.26;2315508;75;20991;-82
2021/09/17 08:10:44;;;;;;;2.55;1.87;;;;;;;13.94;89.40;98422.10;2314549;75;20924;-82
2021/09/17 08:13:45;;;;;;;2.00;1.80;;;;;;;13.85;88.98;98422.58;2313399;75;20936;-82
2021/09/17 08:16:45;;;;;;;2.27;2.15;;;;;;;13.76;88.97;98419.59;2313941;76;20967;-81
2021/09/17 08:19:46;;;;;;;6.60;3.95;;;;;;;13.73;88.93;98423.55;2314560;76;20912;-82
2021/09/17 08:22:46;;;;;;;16.45;7.28;;;;;;;13.73;89.01;98418.30;2315787;75;20967;-82
2021/09/17 08:25:47;;;;;;;3.30;3.00;;;;;;;13.71;89.48;98417.00;2314651;76;20947;-81
2021/09/17 08:28:47;;;;;;;5.15;2.25;;;;;;;13.73;89.62;98420.92;2313595;76;20963;-82
2021/09/17 08:31:49;;;;;;;2.77;2.40;;;;;;;13.74;89.62;98423.11;2315838;75;21327;-82
2021/09/17 08:34:50;;;;;;;3.58;2.30;;;;;;;13.78;89.67;98425.70;2318048;76;21062;-81
2021/09/17 08:37:50;;;;;;;2.55;1.70;;;;;;;13.80;89.74;98423.06;2320648;76;20975;-82
2021/09/17 08:40:51;;;;;;;4.28;2.45;;;;;;;13.81;89.71;98421.73;2321795;76;20963;-81
2021/09/17 08:43:51;;;;;;;3.80;2.15;;;;;;;13.86;89.84;98423.02;2319053;75;20974;-81
2021/09/17 08:46:52;;;;;;;3.45;2.20;;;;;;;13.91;89.68;98425.19;2323940;75;21312;-82
2021/09/17 08:49:52;;;;;;;2.20;2.10;;;;;;;13.94;89.84;98419.92;2324486;76;20986;-81
2021/09/17 08:52:53;;;;;;;2.70;2.50;;;;;;;14.01;89.78;98421.16;2316799;76;20994;-81
2021/09/17 08:55:54;;;;;;;2.50;2.25;;;;;;;14.11;89.14;98419.77;2317996;75;21716;-82
2021/09/17 08:58:54;;;;;;;4.03;2.17;;;;;;;14.22;89.19;98415.30;2315549;76;20956;-82
2021/09/17 09:01:55;;;;;;;4.67;2.50;;;;;;;14.28;89.36;98419.17;2320353;76;21355;-82
2021/09/17 09:04:56;;;;;;;3.22;2.92;;;;;;;14.27;88.93;98422.68;2317254;76;20931;-81
2021/09/17 09:07:56;;;;;;;3.22;3.02;;;;;;;14.32;89.29;98419.56;2278968;77;20940;-81
2021/09/17 09:10:57;;;;;;;3.45;2.80;;;;;;;14.31;88.84;98421.77;2377596;74;20983;-82
2021/09/17 09:13:57;;;;;;;3.87;2.65;;;;;;;14.30;88.99;98417.41;2375693;75;21344;-81
2021/09/17 09:16:58;;;;;;;4.87;3.77;;;;;;;14.28;89.47;98426.61;2376608;75;20933;-81
2021/09/17 09:19:58;;;;;;;4.17;3.87;;;;;;;14.33;89.49;98425.25;2372273;75;21003;-81
2021/09/17 09:22:59;;;;;;;4.95;4.55;;;;;;;14.42;89.63;98428.22;2273015;77;20980;-82
2021/09/17 09:25:59;;;;;;;5.05;4.55;;;;;;;14.44;89.25;98420.79;2314907;76;20971;-81
2021/09/17 09:29:00;;;;;;;5.55;5.05;;;;;;;14.47;89.72;98422.07;2316827;76;20948;-81
2021/09/17 09:32:01;;;;;;;6.78;5.28;;;;;;;14.58;89.54;98424.14;2315800;76;20968;-82
2021/09/17 09:35:01;;;;;;;5.65;5.17;;;;;;;14.64;89.19;98414.88;2320842;76;21308;-82
2021/09/17 09:38:02;;;;;;;8.70;5.30;;;;;;;14.78;89.34;98421.77;2316877;75;20995;-82
2021/09/17 09:41:02;;;;;;;7.25;6.42;;;;;;;14.88;89.07;98415.52;2324856;76;20932;-82
2021/09/17 09:44:03;;;;;;;7.08;5.95;;;;;;;14.93;88.98;98412.38;2321753;75;20964;-82
2021/09/17 09:47:03;;;;;;;6.00;5.30;;;;;;;15.00;89.04;98411.42;2313498;76;20955;-81
2021/09/17 09:50:04;;;;;;;6.90;5.95;;;;;;;15.14;88.12;98413.42;2316154;76;21042;-81
2021/09/17 09:53:05;;;;;;;8.98;8.13;;;;;;;15.18;88.30;98410.31;2318640;75;20955;-82
2021/09/17 09:56:07;;;;;;;6.87;6.17;;;;;;;15.31;88.30;98409.25;2284369;75;20992;-82
2021/09/17 09:59:08;;;;;;;6.33;5.78;;;;;;;15.33;87.92;98406.59;2323108;76;20959;-81
2021/09/17 10:02:08;;;;;;;6.37;5.78;;;;;;;15.36;87.57;98406.11;2311307;76;20986;-81
2021/09/17 10:05:09;;;;;;;7.83;7.03;;;;;;;15.35;87.07;98410.94;2320528;76;20963;-82
2021/09/17 10:08:11;;;;;;;9.13;8.33;;;;;;;15.32;87.16;98404.41;2323941;76;20967;-82
2021/09/17 10:11:11;;;;;;;11.38;10.28;;;;;;;15.36;87.12;98403.48;2315329;75;20944;-81
2021/09/17 10:14:12;;;;;;;9.83;8.93;;;;;;;15.47;87.94;98396.75;2317477;76;20955;-81
2021/09/17 10:17:14;;;;;;;8.55;7.72;;;;;;;15.62;87.28;98399.66;2322216;76;21319;-81
2021/09/17 10:20:15;;;;;;;8.60;7.80;;;;;;;15.74;86.51;98399.02;2318440;75;21533;-82
2021/09/17 10:23:16;;;;;;;8.75;7.90;;;;;;;15.87;86.89;98395.74;2317001;76;20966;-82
2021/09/17 10:26:17;;;;;;;10.23;9.23;;;;;;;15.98;87.05;98400.37;2316165;76;20951;-82
2021/09/17 10:29:17;;;;;;;12.53;8.50;;;;;;;16.03;86.24;98399.85;2298368;76;20958;-83
2021/09/17 10:32:18;;;;;;;12.15;10.95;;;;;;;16.04;85.61;98398.09;2295842;77;21363;-82
2021/09/17 10:35:18;;;;;;;16.32;10.00;;;;;;;16.11;86.02;98397.95;2285774;76;20963;-82
2021/09/17 10:38:19;;;;;;;9.68;8.88;;;;;;;16.08;85.45;98396.69;2310641;77;21005;-81
2021/09/17 10:41:19;;;;;;;12.82;11.28;;;;;;;16.08;85.43;98404.59;2286703;77;20952;-81
2021/09/17 10:44:20;;;;;;;10.32;9.23;;;;;;;16.11;85.87;98401.91;2367509;74;20927;-81
2021/09/17 10:47:21;;;;;;;11.70;10.13;;;;;;;16.15;85.20;98396.14;2369524;75;20982;-80
2021/09/17 10:50:23;;;;;;;13.00;10.05;;;;;;;16.15;86.20;98398.33;2366784;75;20979;-80
2021/09/17 10:53:23;;;;;;;10.58;9.10;;;;;;;16.34;87.03;98392.28;2275962;76;21019;-81
2021/09/17 10:56:24;;;;;;;12.18;10.85;;;;;;;16.79;87.56;98377.86;2336115;75;20931;-81
2021/09/17 10:59:25;;;;;;;13.53;12.03;;;;;;;16.96;83.39;98382.33;2323692;75;21323;-82
2021/09/17 11:02:26;;;;;;;10.53;9.58;;;;;;;17.12;84.02;98383.73;2319858;75;20958;-81
2021/09/17 11:05:26;;;;;;;16.32;13.00;;;;;;;16.99;81.93;98381.40;2330516;74;20947;-81
2021/09/17 11:08:27;;;;;;;12.13;10.93;;;;;;;16.79;82.48;98374.77;2295696;77;20953;-81
2021/09/17 11:11:28;;;;;;;12.37;11.12;;;;;;;16.67;82.06;98377.66;2278812;77;21002;-80
2021/09/17 11:14:30;;;;;;;14.10;10.93;;;;;;;16.85;82.88;98377.73;2307020;77;20948;-80
2021/09/17 11:17:31;;;;;;;11.83;9.50;;;;;;;17.01;82.69;98378.28;2324677;75;21363;-81
2021/09/17 11:20:31;;;;;;;11.90;10.30;;;;;;;17.04;82.06;98368.53;2319272;75;20983;-81
2021/09/17 11:23:32;;;;;;;11.65;9.05;;;;;;;17.17;82.01;98376.59;2320624;76;21327;-81
2021/09/17 11:26:32;;;;;;;10.43;9.28;;;;;;;17.19;82.08;98369.52;2315658;75;20949;-81
2021/09/17 11:29:33;;;;;;;11.15;9.98;;;;;;;17.27;82.42;98365.38;2321637;76;20975;-81
2021/09/17 11:32:33;;;;;;;14.30;11.80;;;;;;;17.38;81.29;98359.89;2321407;75;20956;-81
2021/09/17 11:35:34;;;;;;;14.25;12.07;;;;;;;17.35;81.34;98356.02;2314804;76;21349;-81
2021/09/17 11:38:34;;;;;;;14.28;11.55;;;;;;;17.46;82.27;98356.63;2312214;76;20940;-82
2021/09/17 11:41:35;;;;;;;11.10;9.98;;;;;;;17.62;81.69;98359.77;2279707;76;20967;-83
2021/09/17 11:44:36;;;;;;;10.93;9.78;;;;;;;17.62;80.96;98354.04;2280166;77;21326;-83
2021/09/17 11:47:37;;;;;;;10.25;9.25;;;;;;;17.57;80.45;98354.60;2287553;76;20985;-82
2021/09/17 11:50:37;;;;;;;11.05;9.05;;;;;;;17.53;79.95;98351.62;2286115;76;20987;-82
2021/09/17 11:53:38;;;;;;;11.48;10.25;;;;;;;17.53;80.47;98353.39;2275651;76;20960;-82
2021/09/17 11:56:38;;;;;;;12.45;8.83;;;;;;;17.49;80.68;98348.19;2314821;76;20935;-79
2021/09/17 11:59:39;;;;;;;10.43;9.30;;;;;;;17.47;79.82;98354.41;2313756;76;20956;-82
2021/09/17 12:02:39;;;;;;;11.15;9.15;;;;;;;17.36;80.05;98355.11;2292433;77;20970;-80
2021/09/17 12:05:40;;;;;;;9.63;8.78;;;;;;;17.34;81.09;98349.87;2320872;76;20932;-81
2021/09/17 12:08:41;;;;;;;10.50;8.50;;;;;;;17.26;81.18;98346.50;2323613;76;21020;-82
2021/09/17 12:11:42;;;;;;;9.28;8.33;;;;;;;17.10;81.58;98351.70;2322092;75;21014;-83
2021/09/17 12:14:42;;;;;;;9.43;8.35;;;;;;;16.93;81.64;98353.39;2319731;75;21312;-82
2021/09/17 12:17:43;;;;;;;12.30;7.97;;;;;;;16.83;81.98;98352.72;2378432;75;20934;-84
2021/09/17 12:20:43;;;;;;;9.63;8.45;;;;;;;16.76;82.38;98344.52;2362482;74;20997;-84
2021/09/17 12:23:45;;;;;;;11.97;10.72;;;;;;;16.69;82.22;98342.05;2367406;75;21289;-84
2021/09/17 12:26:45;;;;;;;10.88;9.85;;;;;;;16.60;82.77;98341.75;2360926;75;21399;-83
2021/09/17 12:29:46;;;;;;;15.90;9.25;;;;;;;16.59;83.41;98345.73;2366747;75;20987;-81
2021/09/17 12:32:46;;;;;;;13.60;9.20;;;;;;;16.53;82.63;98343.64;2367068;75;20909;-83
2021/09/17 12:35:47;;;;;;;10.55;8.08;;;;;;;16.48;83.33;98345.95;2288981;76;20938;-83
2021/09/17 12:38:49;;;;;;;9.48;8.58;;;;;;;16.50;83.39;98345.02;2315027;76;21354;-83
2021/09/17 12:41:55;;;;;;;10.58;9.33;;;;;;;16.53;83.18;98344.09;2313609;76;20983;-84
2021/09/17 12:44:57;;;;;;;9.63;8.73;;;;;;;16.67;83.41;98346.48;2277326;77;20982;-83
2021/09/17 12:47:58;;;;;;;12.13;11.05;;;;;;;16.88;83.19;98340.31;2287418;75;20956;-84
2021/09/17 12:50:59;;;;;;;10.78;9.53;;;;;;;17.09;82.92;98348.20;2288015;77;21010;-81
2021/09/17 12:54:00;;;;;;;11.83;9.50;;;;;;;17.32;82.41;98339.77;2376090;75;20964;-82
2021/09/17 12:57:01;;;;;;;12.75;10.10;;;;;;;17.55;82.11;98339.26;2372545;75;20895;-82
2021/09/17 13:00:02;;;;;;;11.12;9.98;;;;;;;17.74;80.85;98327.83;2359433;75;20943;-83
2021/09/17 13:03:05;;;;;;;11.45;9.63;;;;;;;17.95;80.31;98327.28;2375012;75;20934;-84
2021/09/17 13:06:06;;;;;;;9.90;8.85;;;;;;;18.14;80.26;98328.53;2356815;75;20946;-83
2021/09/17 13:09:07;;;;;;;10.08;7.90;;;;;;;18.25;78.63;98320.80;2354609;75;20944;-83
2021/09/17 13:12:07;;;;;;;17.70;9.98;;;;;;;18.34;77.45;98316.13;2287743;77;20946;-83
2021/09/17 13:15:08;;;;;;;10.08;8.40;;;;;;;18.37;77.25;98323.98;2304209;75;20963;-83
2021/09/17 13:18:09;;;;;;;9.20;8.30;;;;;;;18.26;77.39;98319.44;2282524;76;20959;-80
2021/09/17 13:21:09;;;;;;;10.60;8.38;;;;;;;18.15;78.18;98324.12;2300874;76;21407;-82
2021/09/17 13:24:10;;;;;;;12.37;8.58;;;;;;;17.98;78.64;98320.60;2297910;77;20964;-84
2021/09/17 13:27:11;;;;;;;9.13;8.08;;;;;;;17.87;78.91;98320.47;2299002;76;20944;-82
2021/09/17 13:30:13;;;;;;;8.80;7.67;;;;;;;17.66;78.79;98322.74;2295222;76;21056;-85
2021/09/17 13:33:15;;;;;;;9.15;8.15;;;;;;;17.46;79.43;98321.01;2296893;76;21008;-84
2021/09/17 13:36:16;;;;;;;10.25;8.00;;;;;;;17.28;80.33;98324.05;2306361;76;20995;-83
2021/09/17 13:39:16;;;;;;;9.48;8.58;;;;;;;17.17;80.72;98319.02;2313939;74;21284;-83
2021/09/17 13:42:17;;;;;;;11.97;10.20;;;;;;;17.05;81.37;98330.72;2297068;76;20953;-84
2021/09/17 13:45:17;;;;;;;16.90;9.40;;;;;;;16.94;81.10;98340.63;2298218;76;20952;-83
2021/09/17 13:48:19;;;;;;;12.80;10.58;;;;;;;16.84;81.51;98336.45;2282095;76;20936;-82
2021/09/17 13:51:20;;;;;;;10.72;9.20;;;;;;;16.78;81.73;98333.95;2374236;75;21011;-81
2021/09/17 13:54:20;;;;;;;9.23;7.37;;;;;;;16.72;81.40;98328.81;2362473;75;21319;-81
2021/09/17 13:57:21;;;;;;;8.03;6.95;;;;;;;16.64;81.76;98333.34;2369549;75;20966;-81
2021/09/17 14:00:21;;;;;;;12.63;7.12;;;;;;;16.55;82.09;98331.31;2370668;75;20962;-81